Kos, Greece
Current Conditions -  °F | °C
As of 7:50 AM on Tuesday 23 Dec 2014 (Local Time) from LGKO Reporting Station
Few Clouds Few Clouds  
Wind Chill: 50°   Ceiling: Unl
Heat Index: 50°   Visibility: 6mi
Dew Point: 32°   Wind: 9mph
Humidity: 50%   Direction: 340°NNW
Pressure: 30.21"   Gusts: NA
Location:  36.8°N, 27.14°E
Report Text: LGKO 230450Z 34008KT 9999 FEW020 10/M00 Q1023
Loading
Personal Weather Stations






























Interactive Weather Map New forecast layout! Learn more

10-Day Weather Forecast

Advertisements
Track Severe Weather on mobile